sensor_id;sensor_type;location;lat;lon;timestamp;P1;durP1;ratioP1;P2;durP2;ratioP2
4355;SDS011;64374;51.482;7.408;2024-03-22T00:02:24;40.43;;;23.27;;
4355;SDS011;64374;51.482;7.408;2024-03-22T00:04:54;41.87;;;22.97;;
4355;SDS011;64374;51.482;7.408;2024-03-22T00:07:20;42.17;;;23.87;;
4355;SDS011;64374;51.482;7.408;2024-03-22T00:09:47;40.60;;;24.73;;
4355;SDS011;64374;51.482;7.408;2024-03-22T00:12:14;38.73;;;24.23;;
4355;SDS011;64374;51.482;7.408;2024-03-22T00:14:41;45.40;;;25.27;;
4355;SDS011;64374;51.482;7.408;2024-03-22T00:17:07;40.60;;;25.53;;
4355;SDS011;64374;51.482;7.408;2024-03-22T00:19:37;44.23;;;25.77;;
4355;SDS011;64374;51.482;7.408;2024-03-22T00:22:03;41.70;;;24.07;;
4355;SDS011;64374;51.482;7.408;2024-03-22T00:24:30;35.93;;;21.90;;
4355;SDS011;64374;51.482;7.408;2024-03-22T00:26:57;41.80;;;24.03;;
4355;SDS011;64374;51.482;7.408;2024-03-22T00:29:25;36.50;;;22.77;;
4355;SDS011;64374;51.482;7.408;2024-03-22T00:31:51;36.03;;;21.67;;
4355;SDS011;64374;51.482;7.408;2024-03-22T00:34:18;39.30;;;23.07;;
4355;SDS011;64374;51.482;7.408;2024-03-22T00:36:46;35.93;;;22.33;;
4355;SDS011;64374;51.482;7.408;2024-03-22T00:39:13;39.63;;;24.50;;
4355;SDS011;64374;51.482;7.408;2024-03-22T00:41:39;36.67;;;21.53;;
4355;SDS011;64374;51.482;7.408;2024-03-22T00:44:06;34.10;;;21.87;;
4355;SDS011;64374;51.482;7.408;2024-03-22T00:46:33;36.20;;;21.17;;
4355;SDS011;64374;51.482;7.408;2024-03-22T00:49:01;38.83;;;22.63;;
4355;SDS011;64374;51.482;7.408;2024-03-22T00:51:27;39.77;;;21.80;;
4355;SDS011;64374;51.482;7.408;2024-03-22T00:53:56;39.43;;;22.30;;
4355;SDS011;64374;51.482;7.408;2024-03-22T00:56:22;35.57;;;21.80;;
4355;SDS011;64374;51.482;7.408;2024-03-22T00:58:49;34.90;;;20.40;;
4355;SDS011;64374;51.482;7.408;2024-03-22T01:01:15;37.53;;;22.43;;
4355;SDS011;64374;51.482;7.408;2024-03-22T01:03:42;34.23;;;20.10;;
4355;SDS011;64374;51.482;7.408;2024-03-22T01:06:10;39.20;;;21.17;;
4355;SDS011;64374;51.482;7.408;2024-03-22T01:08:37;35.50;;;19.63;;
4355;SDS011;64374;51.482;7.408;2024-03-22T01:11:07;35.90;;;21.10;;
4355;SDS011;64374;51.482;7.408;2024-03-22T01:13:35;38.47;;;20.40;;
4355;SDS011;64374;51.482;7.408;2024-03-22T01:16:01;34.27;;;20.47;;
4355;SDS011;64374;51.482;7.408;2024-03-22T01:18:28;40.80;;;20.57;;
4355;SDS011;64374;51.482;7.408;2024-03-22T01:20:54;32.87;;;20.83;;
4355;SDS011;64374;51.482;7.408;2024-03-22T01:23:21;32.13;;;19.50;;
4355;SDS011;64374;51.482;7.408;2024-03-22T01:25:47;35.10;;;21.00;;
4355;SDS011;64374;51.482;7.408;2024-03-22T01:28:16;35.63;;;19.83;;
4355;SDS011;64374;51.482;7.408;2024-03-22T01:30:42;33.53;;;20.27;;
4355;SDS011;64374;51.482;7.408;2024-03-22T01:33:11;39.93;;;20.73;;
4355;SDS011;64374;51.482;7.408;2024-03-22T01:35:37;37.23;;;21.77;;
4355;SDS011;64374;51.482;7.408;2024-03-22T01:38:05;34.80;;;20.50;;
4355;SDS011;64374;51.482;7.408;2024-03-22T01:40:31;36.73;;;21.13;;
4355;SDS011;64374;51.482;7.408;2024-03-22T01:42:59;37.50;;;21.63;;
4355;SDS011;64374;51.482;7.408;2024-03-22T01:45:27;36.03;;;19.90;;
4355;SDS011;64374;51.482;7.408;2024-03-22T01:47:58;38.60;;;21.40;;
4355;SDS011;64374;51.482;7.408;2024-03-22T01:50:25;42.10;;;21.70;;
4355;SDS011;64374;51.482;7.408;2024-03-22T01:52:53;41.13;;;21.27;;
4355;SDS011;64374;51.482;7.408;2024-03-22T01:55:19;35.20;;;21.40;;
4355;SDS011;64374;51.482;7.408;2024-03-22T01:57:47;40.40;;;21.60;;
4355;SDS011;64374;51.482;7.408;2024-03-22T02:00:16;30.83;;;18.77;;
4355;SDS011;64374;51.482;7.408;2024-03-22T02:02:45;40.70;;;21.93;;
4355;SDS011;64374;51.482;7.408;2024-03-22T02:05:12;41.43;;;22.53;;
4355;SDS011;64374;51.482;7.408;2024-03-22T02:07:40;40.60;;;21.47;;
4355;SDS011;64374;51.482;7.408;2024-03-22T02:10:07;37.00;;;21.40;;
4355;SDS011;64374;51.482;7.408;2024-03-22T02:12:37;43.57;;;21.50;;
4355;SDS011;64374;51.482;7.408;2024-03-22T02:15:04;37.57;;;20.60;;
4355;SDS011;64374;51.482;7.408;2024-03-22T02:17:36;34.70;;;20.10;;
4355;SDS011;64374;51.482;7.408;2024-03-22T02:20:03;38.77;;;20.77;;
4355;SDS011;64374;51.482;7.408;2024-03-22T02:22:31;40.50;;;20.00;;
4355;SDS011;64374;51.482;7.408;2024-03-22T02:25:02;38.73;;;21.67;;
4355;SDS011;64374;51.482;7.408;2024-03-22T02:27:30;35.00;;;20.20;;
4355;SDS011;64374;51.482;7.408;2024-03-22T02:29:56;33.50;;;19.90;;
4355;SDS011;64374;51.482;7.408;2024-03-22T02:32:23;37.37;;;20.80;;
4355;SDS011;64374;51.482;7.408;2024-03-22T02:34:49;37.73;;;20.60;;
4355;SDS011;64374;51.482;7.408;2024-03-22T02:37:16;34.50;;;19.93;;
4355;SDS011;64374;51.482;7.408;2024-03-22T02:39:42;33.83;;;18.70;;
4355;SDS011;64374;51.482;7.408;2024-03-22T02:42:16;35.97;;;19.67;;
4355;SDS011;64374;51.482;7.408;2024-03-22T02:44:45;36.53;;;21.13;;
4355;SDS011;64374;51.482;7.408;2024-03-22T02:47:12;38.63;;;21.57;;
4355;SDS011;64374;51.482;7.408;2024-03-22T02:49:41;38.93;;;21.17;;
4355;SDS011;64374;51.482;7.408;2024-03-22T02:52:10;40.40;;;21.00;;
4355;SDS011;64374;51.482;7.408;2024-03-22T02:54:36;35.73;;;20.23;;
4355;SDS011;64374;51.482;7.408;2024-03-22T02:57:05;32.97;;;18.93;;
4355;SDS011;64374;51.482;7.408;2024-03-22T02:59:33;35.33;;;21.73;;
4355;SDS011;64374;51.482;7.408;2024-03-22T03:02:03;35.37;;;20.53;;
4355;SDS011;64374;51.482;7.408;2024-03-22T03:04:29;36.07;;;20.80;;
4355;SDS011;64374;51.482;7.408;2024-03-22T03:06:56;36.20;;;18.50;;
4355;SDS011;64374;51.482;7.408;2024-03-22T03:09:23;34.97;;;20.70;;
4355;SDS011;64374;51.482;7.408;2024-03-22T03:11:51;32.77;;;18.30;;
4355;SDS011;64374;51.482;7.408;2024-03-22T03:14:17;32.20;;;19.07;;
4355;SDS011;64374;51.482;7.408;2024-03-22T03:16:45;39.23;;;19.80;;
4355;SDS011;64374;51.482;7.408;2024-03-22T03:19:11;31.93;;;18.87;;
4355;SDS011;64374;51.482;7.408;2024-03-22T03:21:38;45.07;;;20.60;;
4355;SDS011;64374;51.482;7.408;2024-03-22T03:24:06;37.47;;;20.43;;
4355;SDS011;64374;51.482;7.408;2024-03-22T03:26:34;34.13;;;20.40;;
4355;SDS011;64374;51.482;7.408;2024-03-22T03:29:00;39.33;;;21.10;;
4355;SDS011;64374;51.482;7.408;2024-03-22T03:31:30;38.50;;;21.30;;
4355;SDS011;64374;51.482;7.408;2024-03-22T03:33:58;39.97;;;20.57;;
4355;SDS011;64374;51.482;7.408;2024-03-22T03:36:25;41.70;;;19.97;;
4355;SDS011;64374;51.482;7.408;2024-03-22T03:38:52;32.30;;;19.70;;
4355;SDS011;64374;51.482;7.408;2024-03-22T03:41:19;37.30;;;21.53;;
4355;SDS011;64374;51.482;7.408;2024-03-22T03:43:45;39.47;;;22.00;;
4355;SDS011;64374;51.482;7.408;2024-03-22T03:46:12;36.43;;;21.00;;
4355;SDS011;64374;51.482;7.408;2024-03-22T03:48:39;37.03;;;20.37;;
4355;SDS011;64374;51.482;7.408;2024-03-22T03:51:07;38.27;;;21.53;;
4355;SDS011;64374;51.482;7.408;2024-03-22T03:53:33;32.63;;;20.00;;
4355;SDS011;64374;51.482;7.408;2024-03-22T03:56:07;37.47;;;21.30;;
4355;SDS011;64374;51.482;7.408;2024-03-22T03:58:36;34.43;;;21.37;;
4355;SDS011;64374;51.482;7.408;2024-03-22T04:01:05;37.27;;;21.50;;
4355;SDS011;64374;51.482;7.408;2024-03-22T04:03:31;36.97;;;21.90;;
4355;SDS011;64374;51.482;7.408;2024-03-22T04:05:58;36.47;;;20.00;;
4355;SDS011;64374;51.482;7.408;2024-03-22T04:08:28;35.57;;;19.63;;
4355;SDS011;64374;51.482;7.408;2024-03-22T04:10:56;37.77;;;19.97;;
4355;SDS011;64374;51.482;7.408;2024-03-22T04:13:26;31.70;;;19.90;;
4355;SDS011;64374;51.482;7.408;2024-03-22T04:15:54;32.33;;;19.07;;
4355;SDS011;64374;51.482;7.408;2024-03-22T04:18:24;39.67;;;19.30;;
4355;SDS011;64374;51.482;7.408;2024-03-22T04:20:55;35.83;;;21.53;;
4355;SDS011;64374;51.482;7.408;2024-03-22T04:23:22;40.80;;;20.30;;
4355;SDS011;64374;51.482;7.408;2024-03-22T04:25:55;35.40;;;20.43;;
4355;SDS011;64374;51.482;7.408;2024-03-22T04:28:22;39.70;;;20.50;;
4355;SDS011;64374;51.482;7.408;2024-03-22T04:30:56;34.60;;;19.17;;
4355;SDS011;64374;51.482;7.408;2024-03-22T04:33:23;34.23;;;20.00;;
4355;SDS011;64374;51.482;7.408;2024-03-22T04:35:53;32.43;;;17.60;;
4355;SDS011;64374;51.482;7.408;2024-03-22T04:38:19;34.57;;;19.53;;
4355;SDS011;64374;51.482;7.408;2024-03-22T04:40:46;34.33;;;18.93;;
4355;SDS011;64374;51.482;7.408;2024-03-22T04:43:15;32.63;;;18.60;;
4355;SDS011;64374;51.482;7.408;2024-03-22T04:45:42;32.80;;;20.47;;
4355;SDS011;64374;51.482;7.408;2024-03-22T04:48:09;33.27;;;18.60;;
4355;SDS011;64374;51.482;7.408;2024-03-22T04:50:38;27.37;;;18.73;;
4355;SDS011;64374;51.482;7.408;2024-03-22T04:53:07;31.93;;;19.30;;
4355;SDS011;64374;51.482;7.408;2024-03-22T04:55:33;30.57;;;18.50;;
4355;SDS011;64374;51.482;7.408;2024-03-22T04:58:03;33.53;;;19.20;;
4355;SDS011;64374;51.482;7.408;2024-03-22T05:00:30;32.47;;;18.47;;
4355;SDS011;64374;51.482;7.408;2024-03-22T05:02:57;30.53;;;18.70;;
4355;SDS011;64374;51.482;7.408;2024-03-22T05:05:24;29.47;;;17.27;;
4355;SDS011;64374;51.482;7.408;2024-03-22T05:07:51;33.20;;;18.90;;
4355;SDS011;64374;51.482;7.408;2024-03-22T05:10:17;26.43;;;17.40;;
4355;SDS011;64374;51.482;7.408;2024-03-22T05:12:45;27.83;;;18.20;;
4355;SDS011;64374;51.482;7.408;2024-03-22T05:15:11;27.53;;;16.10;;
4355;SDS011;64374;51.482;7.408;2024-03-22T05:17:40;27.17;;;17.27;;
4355;SDS011;64374;51.482;7.408;2024-03-22T05:20:07;31.83;;;17.77;;
4355;SDS011;64374;51.482;7.408;2024-03-22T05:22:36;26.30;;;17.87;;
4355;SDS011;64374;51.482;7.408;2024-03-22T05:25:02;28.70;;;17.37;;
4355;SDS011;64374;51.482;7.408;2024-03-22T05:27:30;33.20;;;18.30;;
4355;SDS011;64374;51.482;7.408;2024-03-22T05:29:56;29.47;;;15.90;;
4355;SDS011;64374;51.482;7.408;2024-03-22T05:32:23;27.90;;;17.77;;
4355;SDS011;64374;51.482;7.408;2024-03-22T05:34:51;25.90;;;16.60;;
4355;SDS011;64374;51.482;7.408;2024-03-22T05:37:23;25.43;;;15.20;;
4355;SDS011;64374;51.482;7.408;2024-03-22T05:39:49;28.20;;;16.80;;
4355;SDS011;64374;51.482;7.408;2024-03-22T05:42:18;22.30;;;14.80;;
4355;SDS011;64374;51.482;7.408;2024-03-22T05:44:44;24.30;;;15.13;;
4355;SDS011;64374;51.482;7.408;2024-03-22T05:47:11;21.73;;;13.33;;
4355;SDS011;64374;51.482;7.408;2024-03-22T05:49:38;26.30;;;14.20;;
4355;SDS011;64374;51.482;7.408;2024-03-22T05:52:06;25.80;;;15.10;;
4355;SDS011;64374;51.482;7.408;2024-03-22T05:54:32;29.70;;;15.03;;
4355;SDS011;64374;51.482;7.408;2024-03-22T05:57:00;24.00;;;14.40;;
4355;SDS011;64374;51.482;7.408;2024-03-22T05:59:26;19.30;;;13.17;;
4355;SDS011;64374;51.482;7.408;2024-03-22T06:01:54;20.70;;;13.23;;
4355;SDS011;64374;51.482;7.408;2024-03-22T06:04:23;22.83;;;13.47;;
4355;SDS011;64374;51.482;7.408;2024-03-22T06:06:50;18.20;;;12.20;;
4355;SDS011;64374;51.482;7.408;2024-03-22T06:09:17;23.47;;;12.77;;
4355;SDS011;64374;51.482;7.408;2024-03-22T06:12:02;15.50;;;11.43;;
4355;SDS011;64374;51.482;7.408;2024-03-22T06:14:30;22.47;;;12.47;;
4355;SDS011;64374;51.482;7.408;2024-03-22T06:16:57;22.13;;;11.87;;
4355;SDS011;64374;51.482;7.408;2024-03-22T06:19:23;21.63;;;12.47;;
4355;SDS011;64374;51.482;7.408;2024-03-22T06:21:51;20.93;;;11.73;;
4355;SDS011;64374;51.482;7.408;2024-03-22T06:24:18;18.83;;;11.07;;
4355;SDS011;64374;51.482;7.408;2024-03-22T06:26:48;20.20;;;12.73;;
4355;SDS011;64374;51.482;7.408;2024-03-22T06:29:15;17.67;;;12.50;;
4355;SDS011;64374;51.482;7.408;2024-03-22T06:31:43;18.17;;;11.33;;
4355;SDS011;64374;51.482;7.408;2024-03-22T06:34:09;23.37;;;12.33;;
4355;SDS011;64374;51.482;7.408;2024-03-22T06:36:36;21.30;;;11.70;;
4355;SDS011;64374;51.482;7.408;2024-03-22T06:39:02;16.30;;;10.70;;
4355;SDS011;64374;51.482;7.408;2024-03-22T06:41:33;17.57;;;11.30;;
4355;SDS011;64374;51.482;7.408;2024-03-22T06:44:00;18.60;;;11.93;;
4355;SDS011;64374;51.482;7.408;2024-03-22T06:46:29;19.30;;;11.33;;
4355;SDS011;64374;51.482;7.408;2024-03-22T06:48:55;24.10;;;11.43;;
4355;SDS011;64374;51.482;7.408;2024-03-22T06:51:24;16.80;;;10.90;;
4355;SDS011;64374;51.482;7.408;2024-03-22T06:53:50;15.90;;;11.40;;
4355;SDS011;64374;51.482;7.408;2024-03-22T06:56:19;20.97;;;12.30;;
4355;SDS011;64374;51.482;7.408;2024-03-22T06:58:48;17.40;;;11.00;;
4355;SDS011;64374;51.482;7.408;2024-03-22T07:01:15;17.20;;;11.23;;
4355;SDS011;64374;51.482;7.408;2024-03-22T07:03:41;20.90;;;12.93;;
4355;SDS011;64374;51.482;7.408;2024-03-22T07:06:19;20.77;;;13.43;;
4355;SDS011;64374;51.482;7.408;2024-03-22T07:08:45;19.93;;;11.17;;
4355;SDS011;64374;51.482;7.408;2024-03-22T07:11:16;20.23;;;12.00;;
4355;SDS011;64374;51.482;7.408;2024-03-22T07:13:42;18.53;;;11.97;;
4355;SDS011;64374;51.482;7.408;2024-03-22T07:16:10;15.67;;;10.57;;
4355;SDS011;64374;51.482;7.408;2024-03-22T07:18:36;20.27;;;11.93;;
4355;SDS011;64374;51.482;7.408;2024-03-22T07:21:04;17.53;;;12.30;;
4355;SDS011;64374;51.482;7.408;2024-03-22T07:23:30;18.10;;;11.67;;
4355;SDS011;64374;51.482;7.408;2024-03-22T07:25:59;16.93;;;11.80;;
4355;SDS011;64374;51.482;7.408;2024-03-22T07:28:25;19.20;;;11.50;;
4355;SDS011;64374;51.482;7.408;2024-03-22T07:30:52;16.33;;;11.60;;
4355;SDS011;64374;51.482;7.408;2024-03-22T07:33:24;17.57;;;11.87;;
4355;SDS011;64374;51.482;7.408;2024-03-22T07:35:52;20.60;;;12.97;;
4355;SDS011;64374;51.482;7.408;2024-03-22T07:38:19;18.10;;;12.30;;
4355;SDS011;64374;51.482;7.408;2024-03-22T07:40:46;25.10;;;13.20;;
4355;SDS011;64374;51.482;7.408;2024-03-22T07:43:13;22.10;;;12.07;;
4355;SDS011;64374;51.482;7.408;2024-03-22T07:45:42;16.67;;;11.70;;
4355;SDS011;64374;51.482;7.408;2024-03-22T07:48:08;20.30;;;12.73;;
4355;SDS011;64374;51.482;7.408;2024-03-22T07:50:37;20.57;;;13.30;;
4355;SDS011;64374;51.482;7.408;2024-03-22T07:53:03;21.13;;;13.37;;
4355;SDS011;64374;51.482;7.408;2024-03-22T07:55:30;18.20;;;12.50;;
4355;SDS011;64374;51.482;7.408;2024-03-22T07:57:57;22.30;;;14.20;;
4355;SDS011;64374;51.482;7.408;2024-03-22T08:00:25;22.23;;;14.63;;
4355;SDS011;64374;51.482;7.408;2024-03-22T08:02:51;20.50;;;12.87;;
4355;SDS011;64374;51.482;7.408;2024-03-22T08:05:18;17.47;;;12.97;;
4355;SDS011;64374;51.482;7.408;2024-03-22T08:07:46;20.33;;;13.37;;
4355;SDS011;64374;51.482;7.408;2024-03-22T08:10:13;20.57;;;13.70;;
4355;SDS011;64374;51.482;7.408;2024-03-22T08:12:41;25.53;;;14.97;;
4355;SDS011;64374;51.482;7.408;2024-03-22T08:15:09;23.03;;;14.90;;
4355;SDS011;64374;51.482;7.408;2024-03-22T08:17:35;22.30;;;14.63;;
4355;SDS011;64374;51.482;7.408;2024-03-22T08:20:05;25.07;;;14.40;;
4355;SDS011;64374;51.482;7.408;2024-03-22T08:22:32;21.00;;;14.23;;
4355;SDS011;64374;51.482;7.408;2024-03-22T08:25:00;24.90;;;14.77;;
4355;SDS011;64374;51.482;7.408;2024-03-22T08:27:28;25.13;;;14.40;;
4355;SDS011;64374;51.482;7.408;2024-03-22T08:29:58;22.23;;;13.40;;
4355;SDS011;64374;51.482;7.408;2024-03-22T08:32:28;21.33;;;13.83;;
4355;SDS011;64374;51.482;7.408;2024-03-22T08:34:55;28.60;;;14.53;;
4355;SDS011;64374;51.482;7.408;2024-03-22T08:37:21;26.73;;;15.70;;
4355;SDS011;64374;51.482;7.408;2024-03-22T08:39:48;25.47;;;14.13;;
4355;SDS011;64374;51.482;7.408;2024-03-22T08:42:16;21.20;;;13.50;;
4355;SDS011;64374;51.482;7.408;2024-03-22T08:44:43;22.20;;;14.60;;
4355;SDS011;64374;51.482;7.408;2024-03-22T08:47:09;29.83;;;16.47;;
4355;SDS011;64374;51.482;7.408;2024-03-22T08:49:38;27.80;;;15.87;;
4355;SDS011;64374;51.482;7.408;2024-03-22T08:52:07;23.87;;;16.37;;
4355;SDS011;64374;51.482;7.408;2024-03-22T08:54:36;19.30;;;12.10;;
4355;SDS011;64374;51.482;7.408;2024-03-22T08:57:02;26.47;;;16.47;;
4355;SDS011;64374;51.482;7.408;2024-03-22T08:59:31;30.30;;;16.30;;
4355;SDS011;64374;51.482;7.408;2024-03-22T09:01:57;24.20;;;14.67;;
4355;SDS011;64374;51.482;7.408;2024-03-22T09:04:25;28.50;;;15.00;;
4355;SDS011;64374;51.482;7.408;2024-03-22T09:06:51;25.03;;;16.27;;
4355;SDS011;64374;51.482;7.408;2024-03-22T09:09:18;21.13;;;14.27;;
4355;SDS011;64374;51.482;7.408;2024-03-22T09:11:46;20.57;;;13.73;;
4355;SDS011;64374;51.482;7.408;2024-03-22T09:14:13;25.20;;;14.13;;
4355;SDS011;64374;51.482;7.408;2024-03-22T09:16:41;24.83;;;14.23;;
4355;SDS011;64374;51.482;7.408;2024-03-22T09:19:08;26.47;;;15.23;;
4355;SDS011;64374;51.482;7.408;2024-03-22T09:21:36;26.67;;;14.57;;
4355;SDS011;64374;51.482;7.408;2024-03-22T09:24:03;22.40;;;14.10;;
4355;SDS011;64374;51.482;7.408;2024-03-22T09:26:31;23.77;;;14.47;;
4355;SDS011;64374;51.482;7.408;2024-03-22T09:28:58;18.03;;;12.67;;
4355;SDS011;64374;51.482;7.408;2024-03-22T09:31:26;15.60;;;11.50;;
4355;SDS011;64374;51.482;7.408;2024-03-22T09:33:55;25.13;;;14.87;;
4355;SDS011;64374;51.482;7.408;2024-03-22T09:36:21;24.47;;;14.97;;
4355;SDS011;64374;51.482;7.408;2024-03-22T09:38:48;28.50;;;14.40;;
4355;SDS011;64374;51.482;7.408;2024-03-22T09:41:14;18.80;;;12.40;;
4355;SDS011;64374;51.482;7.408;2024-03-22T09:43:44;25.73;;;12.07;;
4355;SDS011;64374;51.482;7.408;2024-03-22T09:46:13;16.57;;;12.20;;
4355;SDS011;64374;51.482;7.408;2024-03-22T09:48:41;19.60;;;13.00;;
4355;SDS011;64374;51.482;7.408;2024-03-22T09:51:09;22.10;;;12.40;;
4355;SDS011;64374;51.482;7.408;2024-03-22T09:53:36;19.30;;;13.63;;
4355;SDS011;64374;51.482;7.408;2024-03-22T09:56:04;21.63;;;13.70;;
4355;SDS011;64374;51.482;7.408;2024-03-22T09:58:32;20.70;;;12.40;;
4355;SDS011;64374;51.482;7.408;2024-03-22T10:00:59;25.17;;;13.97;;
4355;SDS011;64374;51.482;7.408;2024-03-22T10:03:27;22.67;;;13.80;;
4355;SDS011;64374;51.482;7.408;2024-03-22T10:05:53;19.30;;;13.83;;
4355;SDS011;64374;51.482;7.408;2024-03-22T10:08:21;18.60;;;11.60;;
4355;SDS011;64374;51.482;7.408;2024-03-22T10:10:48;22.10;;;13.20;;
4355;SDS011;64374;51.482;7.408;2024-03-22T10:13:15;20.43;;;12.03;;
4355;SDS011;64374;51.482;7.408;2024-03-22T10:15:41;26.60;;;13.70;;
4355;SDS011;64374;51.482;7.408;2024-03-22T10:18:09;19.07;;;13.50;;
4355;SDS011;64374;51.482;7.408;2024-03-22T10:20:35;19.20;;;12.17;;
4355;SDS011;64374;51.482;7.408;2024-03-22T10:23:03;27.63;;;14.07;;
4355;SDS011;64374;51.482;7.408;2024-03-22T10:25:31;17.30;;;11.67;;
4355;SDS011;64374;51.482;7.408;2024-03-22T10:27:59;20.37;;;12.27;;
4355;SDS011;64374;51.482;7.408;2024-03-22T10:30:25;18.67;;;11.20;;
4355;SDS011;64374;51.482;7.408;2024-03-22T10:32:54;19.97;;;11.53;;
4355;SDS011;64374;51.482;7.408;2024-03-22T10:35:23;18.07;;;11.90;;
4355;SDS011;64374;51.482;7.408;2024-03-22T10:37:52;20.60;;;12.80;;
4355;SDS011;64374;51.482;7.408;2024-03-22T10:40:19;16.07;;;10.40;;
4355;SDS011;64374;51.482;7.408;2024-03-22T10:42:48;17.53;;;10.73;;
4355;SDS011;64374;51.482;7.408;2024-03-22T10:45:14;20.77;;;11.50;;
4355;SDS011;64374;51.482;7.408;2024-03-22T10:47:42;15.80;;;9.63;;
4355;SDS011;64374;51.482;7.408;2024-03-22T10:50:11;12.77;;;9.00;;
4355;SDS011;64374;51.482;7.408;2024-03-22T10:52:38;16.30;;;9.33;;
4355;SDS011;64374;51.482;7.408;2024-03-22T10:55:08;13.63;;;8.73;;
4355;SDS011;64374;51.482;7.408;2024-03-22T10:57:39;15.53;;;10.37;;
4355;SDS011;64374;51.482;7.408;2024-03-22T11:00:10;17.53;;;10.17;;
4355;SDS011;64374;51.482;7.408;2024-03-22T11:02:37;17.33;;;10.80;;
4355;SDS011;64374;51.482;7.408;2024-03-22T11:05:04;18.70;;;12.03;;
4355;SDS011;64374;51.482;7.408;2024-03-22T11:07:32;19.33;;;12.37;;
4355;SDS011;64374;51.482;7.408;2024-03-22T11:10:00;18.77;;;11.67;;
4355;SDS011;64374;51.482;7.408;2024-03-22T11:12:28;17.07;;;12.20;;
4355;SDS011;64374;51.482;7.408;2024-03-22T11:14:59;22.80;;;12.73;;
4355;SDS011;64374;51.482;7.408;2024-03-22T11:17:27;19.70;;;10.13;;
4355;SDS011;64374;51.482;7.408;2024-03-22T11:20:00;20.17;;;11.23;;
4355;SDS011;64374;51.482;7.408;2024-03-22T11:22:26;16.40;;;11.70;;
4355;SDS011;64374;51.482;7.408;2024-03-22T11:24:54;15.70;;;11.00;;
4355;SDS011;64374;51.482;7.408;2024-03-22T11:27:20;23.30;;;11.87;;
4355;SDS011;64374;51.482;7.408;2024-03-22T11:29:48;16.53;;;11.17;;
4355;SDS011;64374;51.482;7.408;2024-03-22T11:32:16;19.83;;;12.03;;
4355;SDS011;64374;51.482;7.408;2024-03-22T11:34:45;16.87;;;12.20;;
4355;SDS011;64374;51.482;7.408;2024-03-22T11:37:13;18.23;;;11.43;;
4355;SDS011;64374;51.482;7.408;2024-03-22T11:39:40;18.70;;;12.33;;
4355;SDS011;64374;51.482;7.408;2024-03-22T11:42:06;17.30;;;11.27;;
4355;SDS011;64374;51.482;7.408;2024-03-22T11:44:36;16.50;;;10.57;;
4355;SDS011;64374;51.482;7.408;2024-03-22T11:47:04;19.37;;;10.77;;
4355;SDS011;64374;51.482;7.408;2024-03-22T11:49:34;12.40;;;7.93;;
4355;SDS011;64374;51.482;7.408;2024-03-22T11:52:02;17.60;;;9.63;;
4355;SDS011;64374;51.482;7.408;2024-03-22T11:54:30;12.03;;;9.13;;
4355;SDS011;64374;51.482;7.408;2024-03-22T11:56:56;17.00;;;11.13;;
4355;SDS011;64374;51.482;7.408;2024-03-22T11:59:24;17.10;;;9.90;;
4355;SDS011;64374;51.482;7.408;2024-03-22T12:01:50;14.07;;;9.23;;
4355;SDS011;64374;51.482;7.408;2024-03-22T12:04:17;17.37;;;10.67;;
4355;SDS011;64374;51.482;7.408;2024-03-22T12:06:43;13.60;;;10.40;;
4355;SDS011;64374;51.482;7.408;2024-03-22T12:09:12;14.83;;;9.87;;
4355;SDS011;64374;51.482;7.408;2024-03-22T12:11:40;17.13;;;10.20;;
4355;SDS011;64374;51.482;7.408;2024-03-22T12:14:07;16.00;;;9.67;;
4355;SDS011;64374;51.482;7.408;2024-03-22T12:16:33;14.00;;;10.10;;
4355;SDS011;64374;51.482;7.408;2024-03-22T12:19:02;19.77;;;12.60;;
4355;SDS011;64374;51.482;7.408;2024-03-22T12:21:28;21.00;;;12.37;;
4355;SDS011;64374;51.482;7.408;2024-03-22T12:23:58;22.63;;;12.67;;
4355;SDS011;64374;51.482;7.408;2024-03-22T12:26:25;19.93;;;12.43;;
4355;SDS011;64374;51.482;7.408;2024-03-22T12:28:53;23.97;;;13.37;;
4355;SDS011;64374;51.482;7.408;2024-03-22T12:31:19;19.70;;;12.80;;
4355;SDS011;64374;51.482;7.408;2024-03-22T12:33:46;22.63;;;12.60;;
4355;SDS011;64374;51.482;7.408;2024-03-22T12:36:12;26.37;;;13.70;;
4355;SDS011;64374;51.482;7.408;2024-03-22T12:38:40;19.10;;;13.63;;
4355;SDS011;64374;51.482;7.408;2024-03-22T12:41:06;21.43;;;13.00;;
4355;SDS011;64374;51.482;7.408;2024-03-22T12:43:35;20.93;;;13.60;;
4355;SDS011;64374;51.482;7.408;2024-03-22T12:46:02;23.07;;;14.23;;
4355;SDS011;64374;51.482;7.408;2024-03-22T12:48:30;18.23;;;13.13;;
4355;SDS011;64374;51.482;7.408;2024-03-22T12:50:56;17.37;;;11.43;;
4355;SDS011;64374;51.482;7.408;2024-03-22T12:53:23;14.17;;;10.50;;
4355;SDS011;64374;51.482;7.408;2024-03-22T12:55:49;20.83;;;11.40;;
4355;SDS011;64374;51.482;7.408;2024-03-22T12:58:16;15.00;;;10.70;;
4355;SDS011;64374;51.482;7.408;2024-03-22T13:00:44;19.53;;;11.10;;
4355;SDS011;64374;51.482;7.408;2024-03-22T13:03:12;21.70;;;12.27;;
4355;SDS011;64374;51.482;7.408;2024-03-22T13:05:40;17.20;;;11.40;;
4355;SDS011;64374;51.482;7.408;2024-03-22T13:08:07;17.27;;;10.90;;
4355;SDS011;64374;51.482;7.408;2024-03-22T13:10:34;17.50;;;11.27;;
4355;SDS011;64374;51.482;7.408;2024-03-22T13:13:01;16.70;;;11.77;;
4355;SDS011;64374;51.482;7.408;2024-03-22T13:15:28;16.83;;;11.47;;
4355;SDS011;64374;51.482;7.408;2024-03-22T13:17:57;18.47;;;11.60;;
4355;SDS011;64374;51.482;7.408;2024-03-22T13:20:25;17.77;;;12.07;;
4355;SDS011;64374;51.482;7.408;2024-03-22T13:22:51;14.50;;;11.00;;
4355;SDS011;64374;51.482;7.408;2024-03-22T13:25:18;17.40;;;11.50;;
4355;SDS011;64374;51.482;7.408;2024-03-22T13:27:45;17.40;;;10.87;;
4355;SDS011;64374;51.482;7.408;2024-03-22T13:30:12;20.10;;;11.80;;
4355;SDS011;64374;51.482;7.408;2024-03-22T13:32:40;17.60;;;12.70;;
4355;SDS011;64374;51.482;7.408;2024-03-22T13:35:11;17.47;;;12.20;;
4355;SDS011;64374;51.482;7.408;2024-03-22T13:37:37;16.20;;;12.23;;
4355;SDS011;64374;51.482;7.408;2024-03-22T13:40:05;19.50;;;13.20;;
4355;SDS011;64374;51.482;7.408;2024-03-22T13:42:32;18.37;;;13.33;;
4355;SDS011;64374;51.482;7.408;2024-03-22T13:45:02;21.87;;;13.63;;
4355;SDS011;64374;51.482;7.408;2024-03-22T13:47:29;18.47;;;13.67;;
4355;SDS011;64374;51.482;7.408;2024-03-22T13:49:56;20.70;;;14.40;;
4355;SDS011;64374;51.482;7.408;2024-03-22T13:52:26;22.20;;;13.83;;
4355;SDS011;64374;51.482;7.408;2024-03-22T13:54:54;24.23;;;13.20;;
4355;SDS011;64374;51.482;7.408;2024-03-22T13:57:21;18.40;;;13.23;;
4355;SDS011;64374;51.482;7.408;2024-03-22T13:59:50;16.03;;;12.90;;
4355;SDS011;64374;51.482;7.408;2024-03-22T14:02:17;22.07;;;14.80;;
4355;SDS011;64374;51.482;7.408;2024-03-22T14:04:45;18.77;;;12.90;;
4355;SDS011;64374;51.482;7.408;2024-03-22T14:07:11;23.23;;;12.90;;
4355;SDS011;64374;51.482;7.408;2024-03-22T14:09:40;22.50;;;12.73;;
4355;SDS011;64374;51.482;7.408;2024-03-22T14:12:08;21.47;;;13.30;;
4355;SDS011;64374;51.482;7.408;2024-03-22T14:14:36;18.73;;;12.70;;
4355;SDS011;64374;51.482;7.408;2024-03-22T14:17:02;22.67;;;14.60;;
4355;SDS011;64374;51.482;7.408;2024-03-22T14:19:30;20.67;;;14.67;;
4355;SDS011;64374;51.482;7.408;2024-03-22T14:21:57;20.27;;;14.23;;
4355;SDS011;64374;51.482;7.408;2024-03-22T14:24:24;19.07;;;14.37;;
4355;SDS011;64374;51.482;7.408;2024-03-22T14:26:52;27.17;;;17.10;;
4355;SDS011;64374;51.482;7.408;2024-03-22T14:29:19;30.13;;;17.97;;
4355;SDS011;64374;51.482;7.408;2024-03-22T14:31:45;25.90;;;17.67;;
4355;SDS011;64374;51.482;7.408;2024-03-22T14:34:12;25.37;;;17.50;;
4355;SDS011;64374;51.482;7.408;2024-03-22T14:36:39;23.60;;;16.60;;
4355;SDS011;64374;51.482;7.408;2024-03-22T14:39:06;22.90;;;16.33;;